DLH242 EDDS-LICC
Flight info
| Callsign | DLH242 |
|---|---|
| Flight time | N/A |
| Altitude | 35000 |
| Route | ROTWE5B ROTWE Y126 TUBLO N850 NATOR DCT TRA DCT RIPUS DCT GERSA DCT SOSON DCT ODINA DCT VAKOR DCT PELEN Q789 UXUTA |
| Aircraft | A320/M-SDE3FGHIRWY/LB1 |
Departure
| Time | 2026-05-04 06:57 |
|---|---|
| Airport | Stuttgart Airport (EDDS) |
Arrival
| Time | N/A |
|---|---|
| Airport | Catania-Fontanarossa Airport (LICC) |
| Time | Latitude | Longitude | Altitude | Speed | Heading |
|---|---|---|---|---|---|
| 2026-05-04 06:50 | 48.68849 | 9.19298 | 1285 ft | 3 kts | 344° |
| 2026-05-04 06:51 | 48.68832 | 9.19305 | 1289 ft | 3 kts | 344° |
| 2026-05-04 06:51 | 48.68815 | 9.19313 | 1288 ft | 2 kts | 357° |
| 2026-05-04 06:51 | 48.68800 | 9.19306 | 1287 ft | 2 kts | 69° |
| 2026-05-04 06:51 | 48.68799 | 9.19304 | 1287 ft | 0 kts | 69° |
| 2026-05-04 06:52 | 48.68801 | 9.19309 | 1287 ft | 3 kts | 69° |
| 2026-05-04 06:52 | 48.68815 | 9.19384 | 1285 ft | 12 kts | 76° |
| 2026-05-04 06:52 | 48.68844 | 9.19560 | 1285 ft | 22 kts | 76° |
| 2026-05-04 06:52 | 48.68860 | 9.19789 | 1288 ft | 21 kts | 105° |
| 2026-05-04 06:53 | 48.68836 | 9.20011 | 1285 ft | 21 kts | 84° |
| 2026-05-04 06:53 | 48.68874 | 9.20218 | 1285 ft | 20 kts | 74° |
| 2026-05-04 06:53 | 48.68913 | 9.20437 | 1285 ft | 24 kts | 75° |
| 2026-05-04 06:53 | 48.68967 | 9.20726 | 1287 ft | 35 kts | 75° |
| 2026-05-04 06:54 | 48.69036 | 9.21109 | 1287 ft | 37 kts | 74° |
| 2026-05-04 06:54 | 48.69108 | 9.21471 | 1287 ft | 36 kts | 73° |
| 2026-05-04 06:54 | 48.69176 | 9.21829 | 1285 ft | 35 kts | 74° |
| 2026-05-04 06:54 | 48.69242 | 9.22176 | 1285 ft | 34 kts | 73° |
| 2026-05-04 06:55 | 48.69308 | 9.22513 | 1287 ft | 33 kts | 73° |
| 2026-05-04 06:55 | 48.69365 | 9.22809 | 1287 ft | 17 kts | 73° |
| 2026-05-04 06:55 | 48.69403 | 9.22981 | 1285 ft | 18 kts | 69° |
| 2026-05-04 06:55 | 48.69358 | 9.23150 | 1285 ft | 21 kts | 150° |
| 2026-05-04 06:56 | 48.69222 | 9.23218 | 1285 ft | 20 kts | 179° |
| 2026-05-04 06:57 | 48.67460 | 9.13774 | 3039 ft | 197 kts | 252° |
| 2026-05-04 06:58 | 48.67061 | 9.11706 | 3295 ft | 216 kts | 252° |
| 2026-05-04 06:58 | 48.66621 | 9.09429 | 3622 ft | 232 kts | 252° |
| 2026-05-04 06:58 | 48.66160 | 9.07066 | 4279 ft | 236 kts | 253° |
| 2026-05-04 06:58 | 48.65693 | 9.04667 | 4983 ft | 239 kts | 253° |
| 2026-05-04 06:59 | 48.65222 | 9.02250 | 5654 ft | 240 kts | 253° |
| 2026-05-04 06:59 | 48.64903 | 9.00610 | 6115 ft | 241 kts | 254° |
| 2026-05-04 06:59 | 48.64431 | 8.98183 | 6808 ft | 241 kts | 253° |
| 2026-05-04 06:59 | 48.63958 | 8.95772 | 7396 ft | 244 kts | 253° |
| 2026-05-04 07:01 | 48.58552 | 8.79359 | 11479 ft | 261 kts | 226° |
| 2026-05-04 07:01 | 48.57320 | 8.77337 | 12066 ft | 262 kts | 226° |
| 2026-05-04 07:02 | 48.56079 | 8.75301 | 12647 ft | 265 kts | 227° |
| 2026-05-04 07:02 | 48.54831 | 8.73251 | 13241 ft | 265 kts | 227° |
| 2026-05-04 07:02 | 48.53576 | 8.71187 | 13781 ft | 268 kts | 227° |
| 2026-05-04 07:02 | 48.52389 | 8.69011 | 14260 ft | 270 kts | 234° |
| 2026-05-04 07:03 | 48.51423 | 8.66576 | 14738 ft | 272 kts | 243° |
| 2026-05-04 07:03 | 48.50695 | 8.63926 | 15229 ft | 275 kts | 250° |
| 2026-05-04 07:03 | 48.50178 | 8.61139 | 15704 ft | 277 kts | 252° |
| 2026-05-04 07:03 | 48.49670 | 8.58322 | 16159 ft | 279 kts | 252° |
| 2026-05-04 07:04 | 48.49153 | 8.55491 | 16627 ft | 281 kts | 252° |
| 2026-05-04 07:04 | 48.48627 | 8.52634 | 17085 ft | 283 kts | 251° |
| 2026-05-04 07:04 | 48.47956 | 8.49891 | 17528 ft | 283 kts | 242° |
| 2026-05-04 07:04 | 48.46991 | 8.47305 | 17996 ft | 283 kts | 234° |
| 2026-05-04 07:05 | 48.45775 | 8.44968 | 18424 ft | 284 kts | 225° |
| 2026-05-04 07:05 | 48.44330 | 8.42936 | 18804 ft | 285 kts | 217° |
| 2026-05-04 07:05 | 48.42687 | 8.41266 | 19197 ft | 286 kts | 209° |
| 2026-05-04 07:05 | 48.40882 | 8.39987 | 19586 ft | 288 kts | 201° |
| 2026-05-04 07:06 | 48.36980 | 8.38437 | 20337 ft | 292 kts | 194° |
| 2026-05-04 07:06 | 48.34983 | 8.37807 | 20708 ft | 294 kts | 194° |
| 2026-05-04 07:06 | 48.32978 | 8.37171 | 21081 ft | 295 kts | 194° |
| 2026-05-04 07:07 | 48.30957 | 8.36529 | 21454 ft | 297 kts | 194° |
| 2026-05-04 07:08 | 48.16125 | 8.32543 | 23253 ft | 340 kts | 181° |
| 2026-05-04 07:09 | 48.13729 | 8.32915 | 23396 ft | 353 kts | 173° |
| 2026-05-04 07:09 | 48.11270 | 8.33530 | 23533 ft | 364 kts | 174° |
| 2026-05-04 07:09 | 48.08734 | 8.34143 | 23660 ft | 375 kts | 174° |
| 2026-05-04 07:09 | 48.06121 | 8.34769 | 23773 ft | 386 kts | 174° |
| 2026-05-04 07:10 | 48.03437 | 8.35414 | 23891 ft | 395 kts | 174° |
| 2026-05-04 07:10 | 48.00694 | 8.36075 | 24009 ft | 404 kts | 174° |
| 2026-05-04 07:12 | 47.80398 | 8.40975 | 25783 ft | 430 kts | 173° |
| 2026-05-04 07:12 | 47.77439 | 8.41693 | 26083 ft | 431 kts | 173° |
| 2026-05-04 07:12 | 47.74478 | 8.42400 | 26387 ft | 432 kts | 173° |
| 2026-05-04 07:12 | 47.71499 | 8.43104 | 26622 ft | 434 kts | 174° |
| 2026-05-04 07:13 | 47.68503 | 8.43801 | 26861 ft | 436 kts | 174° |
| 2026-05-04 07:13 | 47.65494 | 8.44379 | 27113 ft | 437 kts | 176° |
| 2026-05-04 07:13 | 47.62462 | 8.44844 | 27366 ft | 438 kts | 177° |
| 2026-05-04 07:14 | 47.50250 | 8.46433 | 28329 ft | 442 kts | 177° |
| 2026-05-04 07:14 | 47.47180 | 8.46875 | 28535 ft | 445 kts | 177° |
| 2026-05-04 07:15 | 47.44148 | 8.47330 | 28867 ft | 442 kts | 177° |
| 2026-05-04 07:15 | 47.41099 | 8.47787 | 29180 ft | 440 kts | 177° |
| 2026-05-04 07:15 | 47.38051 | 8.48241 | 29491 ft | 439 kts | 177° |
| 2026-05-04 07:15 | 47.35007 | 8.48692 | 29788 ft | 439 kts | 177° |
| 2026-05-04 07:16 | 47.31975 | 8.49141 | 30109 ft | 437 kts | 178° |
| 2026-05-04 07:16 | 47.28952 | 8.49583 | 30375 ft | 436 kts | 178° |
| 2026-05-04 07:16 | 47.25944 | 8.50023 | 30630 ft | 434 kts | 178° |
| 2026-05-04 07:16 | 47.22941 | 8.50464 | 30855 ft | 432 kts | 178° |
| 2026-05-04 07:17 | 47.19950 | 8.50902 | 31076 ft | 433 kts | 178° |
| 2026-05-04 07:17 | 47.16949 | 8.51333 | 31333 ft | 432 kts | 178° |
| 2026-05-04 07:17 | 47.13957 | 8.51765 | 31592 ft | 431 kts | 178° |
| 2026-05-04 07:17 | 47.10975 | 8.52196 | 31833 ft | 430 kts | 178° |
| 2026-05-04 07:18 | 47.08009 | 8.52619 | 32061 ft | 429 kts | 178° |
| 2026-05-04 07:18 | 47.05035 | 8.53045 | 32265 ft | 430 kts | 178° |
| 2026-05-04 07:18 | 47.02058 | 8.53478 | 32528 ft | 430 kts | 178° |
| 2026-05-04 07:18 | 46.99084 | 8.53914 | 32779 ft | 429 kts | 178° |
| 2026-05-04 07:19 | 46.96115 | 8.54351 | 33018 ft | 428 kts | 178° |
| 2026-05-04 07:19 | 46.93157 | 8.54782 | 33240 ft | 427 kts | 178° |
| 2026-05-04 07:19 | 46.90204 | 8.55210 | 33438 ft | 426 kts | 178° |
| 2026-05-04 07:19 | 46.87253 | 8.55633 | 33614 ft | 426 kts | 178° |
| 2026-05-04 07:20 | 46.84306 | 8.56049 | 33777 ft | 424 kts | 179° |
| 2026-05-04 07:20 | 46.81404 | 8.56460 | 33935 ft | 425 kts | 178° |
| 2026-05-04 07:20 | 46.78466 | 8.56879 | 34092 ft | 424 kts | 178° |
| 2026-05-04 07:20 | 46.75523 | 8.57299 | 34227 ft | 425 kts | 178° |
| 2026-05-04 07:22 | 46.54867 | 8.60231 | 35123 ft | 427 kts | 178° |
| 2026-05-04 07:22 | 46.51908 | 8.60655 | 35122 ft | 428 kts | 178° |
| 2026-05-04 07:23 | 46.45985 | 8.61498 | 35130 ft | 428 kts | 178° |
| 2026-05-04 07:23 | 46.40046 | 8.62338 | 35130 ft | 428 kts | 178° |
| 2026-05-04 07:24 | 46.34152 | 8.63172 | 35133 ft | 428 kts | 178° |
| 2026-05-04 07:24 | 46.28226 | 8.64001 | 35132 ft | 428 kts | 178° |
| 2026-05-04 07:26 | 46.05066 | 8.71121 | 35148 ft | 440 kts | 153° |
| 2026-05-04 07:27 | 45.99811 | 8.75682 | 35131 ft | 443 kts | 152° |
| 2026-05-04 07:27 | 45.94522 | 8.80253 | 35136 ft | 444 kts | 153° |
| 2026-05-04 07:28 | 45.89212 | 8.84805 | 35138 ft | 444 kts | 153° |
| 2026-05-04 07:28 | 45.83910 | 8.89348 | 35138 ft | 444 kts | 153° |
| 2026-05-04 07:29 | 45.78599 | 8.93905 | 35133 ft | 445 kts | 152° |
| 2026-05-04 07:29 | 45.73320 | 8.98423 | 35126 ft | 445 kts | 153° |
| 2026-05-04 07:30 | 45.68002 | 9.02958 | 35130 ft | 445 kts | 153° |
| 2026-05-04 07:30 | 45.62676 | 9.07481 | 35114 ft | 446 kts | 152° |
| 2026-05-04 07:31 | 45.57339 | 9.12006 | 35113 ft | 446 kts | 152° |
| 2026-05-04 07:33 | 45.35964 | 9.30051 | 35140 ft | 446 kts | 152° |
| 2026-05-04 07:33 | 45.30602 | 9.34545 | 35130 ft | 447 kts | 152° |
| 2026-05-04 07:34 | 45.25247 | 9.39041 | 35135 ft | 447 kts | 152° |
| 2026-05-04 07:34 | 45.19915 | 9.43494 | 35111 ft | 447 kts | 152° |
| 2026-05-04 07:35 | 45.14547 | 9.47967 | 35110 ft | 448 kts | 153° |
| 2026-05-04 07:35 | 45.09169 | 9.52446 | 35114 ft | 449 kts | 153° |
| 2026-05-04 07:36 | 45.03783 | 9.56916 | 35112 ft | 449 kts | 153° |
| 2026-05-04 07:38 | 44.82165 | 9.74764 | 35112 ft | 451 kts | 153° |
| 2026-05-04 07:38 | 44.76743 | 9.79214 | 35106 ft | 451 kts | 153° |
| 2026-05-04 07:39 | 44.71323 | 9.83648 | 35127 ft | 451 kts | 153° |
| 2026-05-04 07:39 | 44.65897 | 9.88076 | 35111 ft | 450 kts | 153° |
| 2026-05-04 07:40 | 44.60479 | 9.92498 | 35118 ft | 450 kts | 153° |
| 2026-05-04 07:40 | 44.55064 | 9.96906 | 35131 ft | 450 kts | 153° |
| 2026-05-04 07:41 | 44.49654 | 10.01294 | 35131 ft | 449 kts | 153° |
| 2026-05-04 07:41 | 44.44250 | 10.05676 | 35137 ft | 449 kts | 153° |
| 2026-05-04 07:42 | 44.38850 | 10.10048 | 35140 ft | 448 kts | 153° |
| 2026-05-04 07:42 | 44.33445 | 10.14409 | 35152 ft | 449 kts | 153° |
| 2026-05-04 07:43 | 44.28035 | 10.18759 | 35151 ft | 448 kts | 153° |
| 2026-05-04 07:43 | 44.22626 | 10.23111 | 35166 ft | 449 kts | 153° |
| 2026-05-04 07:44 | 44.17242 | 10.27435 | 35157 ft | 449 kts | 153° |
| 2026-05-04 07:44 | 44.11824 | 10.31771 | 35167 ft | 449 kts | 154° |
| 2026-05-04 07:45 | 44.06395 | 10.36093 | 35170 ft | 449 kts | 154° |
| 2026-05-04 07:45 | 44.00977 | 10.40395 | 35170 ft | 448 kts | 154° |